sensor_id;sensor_type;location;lat;lon;timestamp;P1;durP1;ratioP1;P2;durP2;ratioP2
25155;SDS011;21913;52.456;13.634;2023-03-31T00:03:40;1.90;;;1.20;;
25155;SDS011;21913;52.456;13.634;2023-03-31T00:08:41;1.92;;;1.10;;
25155;SDS011;21913;52.456;13.634;2023-03-31T00:13:44;2.08;;;1.20;;
25155;SDS011;21913;52.456;13.634;2023-03-31T00:18:45;1.80;;;1.10;;
25155;SDS011;21913;52.456;13.634;2023-03-31T00:23:47;2.72;;;1.27;;
25155;SDS011;21913;52.456;13.634;2023-03-31T00:28:49;1.77;;;1.10;;
25155;SDS011;21913;52.456;13.634;2023-03-31T00:33:50;2.40;;;0.93;;
25155;SDS011;21913;52.456;13.634;2023-03-31T00:38:53;1.85;;;1.20;;
25155;SDS011;21913;52.456;13.634;2023-03-31T00:44:15;2.00;;;1.15;;
25155;SDS011;21913;52.456;13.634;2023-03-31T00:54:29;1.45;;;0.98;;
25155;SDS011;21913;52.456;13.634;2023-03-31T00:59:42;2.58;;;1.20;;
25155;SDS011;21913;52.456;13.634;2023-03-31T01:04:49;1.95;;;1.08;;
25155;SDS011;21913;52.456;13.634;2023-03-31T01:09:55;2.08;;;1.10;;
25155;SDS011;21913;52.456;13.634;2023-03-31T01:15:00;1.25;;;0.90;;
25155;SDS011;21913;52.456;13.634;2023-03-31T01:20:26;2.22;;;1.02;;
25155;SDS011;21913;52.456;13.634;2023-03-31T01:31:07;1.75;;;1.00;;
25155;SDS011;21913;52.456;13.634;2023-03-31T01:36:23;2.33;;;1.20;;
25155;SDS011;21913;52.456;13.634;2023-03-31T01:47:15;1.73;;;1.08;;
25155;SDS011;21913;52.456;13.634;2023-03-31T01:57:52;1.90;;;1.10;;
25155;SDS011;21913;52.456;13.634;2023-03-31T02:03:16;1.95;;;1.08;;
25155;SDS011;21913;52.456;13.634;2023-03-31T02:08:29;2.25;;;0.90;;
25155;SDS011;21913;52.456;13.634;2023-03-31T02:13:38;1.25;;;0.90;;
25155;SDS011;21913;52.456;13.634;2023-03-31T02:18:43;1.83;;;0.90;;
25155;SDS011;21913;52.456;13.634;2023-03-31T02:23:48;1.95;;;1.10;;
25155;SDS011;21913;52.456;13.634;2023-03-31T02:28:51;2.45;;;1.00;;
25155;SDS011;21913;52.456;13.634;2023-03-31T02:33:53;2.30;;;0.98;;
25155;SDS011;21913;52.456;13.634;2023-03-31T02:38:59;2.13;;;0.98;;
25155;SDS011;21913;52.456;13.634;2023-03-31T02:44:05;1.33;;;0.90;;
25155;SDS011;21913;52.456;13.634;2023-03-31T02:49:07;1.45;;;0.77;;
25155;SDS011;21913;52.456;13.634;2023-03-31T02:54:24;2.08;;;0.90;;
25155;SDS011;21913;52.456;13.634;2023-03-31T03:11:00;1.83;;;1.00;;
25155;SDS011;21913;52.456;13.634;2023-03-31T03:16:09;1.65;;;0.90;;
25155;SDS011;21913;52.456;13.634;2023-03-31T03:21:17;2.07;;;1.00;;
25155;SDS011;21913;52.456;13.634;2023-03-31T03:26:18;1.40;;;0.85;;
25155;SDS011;21913;52.456;13.634;2023-03-31T03:31:20;1.30;;;0.80;;
25155;SDS011;21913;52.456;13.634;2023-03-31T03:36:22;1.92;;;1.02;;
25155;SDS011;21913;52.456;13.634;2023-03-31T03:41:23;1.45;;;0.77;;
25155;SDS011;21913;52.456;13.634;2023-03-31T03:46:25;2.22;;;0.90;;
25155;SDS011;21913;52.456;13.634;2023-03-31T03:51:27;2.75;;;0.93;;
25155;SDS011;21913;52.456;13.634;2023-03-31T03:56:29;1.67;;;0.70;;
25155;SDS011;21913;52.456;13.634;2023-03-31T04:01:30;1.70;;;0.88;;
25155;SDS011;21913;52.456;13.634;2023-03-31T04:06:32;1.95;;;0.90;;
25155;SDS011;21913;52.456;13.634;2023-03-31T04:11:34;2.42;;;1.00;;
25155;SDS011;21913;52.456;13.634;2023-03-31T04:16:35;1.40;;;0.80;;
25155;SDS011;21913;52.456;13.634;2023-03-31T04:21:37;1.20;;;0.80;;
25155;SDS011;21913;52.456;13.634;2023-03-31T04:26:38;1.80;;;0.90;;
25155;SDS011;21913;52.456;13.634;2023-03-31T04:31:40;1.85;;;1.00;;
25155;SDS011;21913;52.456;13.634;2023-03-31T04:36:42;1.58;;;0.98;;
25155;SDS011;21913;52.456;13.634;2023-03-31T04:41:45;1.98;;;1.00;;
25155;SDS011;21913;52.456;13.634;2023-03-31T04:46:47;2.30;;;0.82;;
25155;SDS011;21913;52.456;13.634;2023-03-31T04:51:49;1.52;;;0.75;;
25155;SDS011;21913;52.456;13.634;2023-03-31T04:56:50;2.08;;;0.80;;
25155;SDS011;21913;52.456;13.634;2023-03-31T05:01:52;2.05;;;0.90;;
25155;SDS011;21913;52.456;13.634;2023-03-31T05:06:53;2.28;;;0.68;;
25155;SDS011;21913;52.456;13.634;2023-03-31T05:11:55;1.58;;;1.00;;
25155;SDS011;21913;52.456;13.634;2023-03-31T05:16:57;2.22;;;0.80;;
25155;SDS011;21913;52.456;13.634;2023-03-31T05:21:58;1.40;;;0.80;;
25155;SDS011;21913;52.456;13.634;2023-03-31T05:27:00;1.35;;;0.70;;
25155;SDS011;21913;52.456;13.634;2023-03-31T05:32:02;1.48;;;0.75;;
25155;SDS011;21913;52.456;13.634;2023-03-31T05:37:03;2.08;;;1.02;;
25155;SDS011;21913;52.456;13.634;2023-03-31T05:42:05;2.00;;;0.90;;
25155;SDS011;21913;52.456;13.634;2023-03-31T05:47:06;0.85;;;0.60;;
25155;SDS011;21913;52.456;13.634;2023-03-31T05:52:08;1.48;;;0.88;;
25155;SDS011;21913;52.456;13.634;2023-03-31T05:57:11;1.25;;;0.82;;
25155;SDS011;21913;52.456;13.634;2023-03-31T06:02:12;2.35;;;1.08;;
25155;SDS011;21913;52.456;13.634;2023-03-31T06:07:14;1.65;;;0.90;;
25155;SDS011;21913;52.456;13.634;2023-03-31T06:12:15;1.70;;;0.70;;
25155;SDS011;21913;52.456;13.634;2023-03-31T06:17:17;0.90;;;0.60;;
25155;SDS011;21913;52.456;13.634;2023-03-31T06:22:18;1.52;;;0.80;;
25155;SDS011;21913;52.456;13.634;2023-03-31T06:27:20;1.30;;;0.70;;
25155;SDS011;21913;52.456;13.634;2023-03-31T06:32:21;1.95;;;0.70;;
25155;SDS011;21913;52.456;13.634;2023-03-31T06:37:23;2.92;;;0.90;;
25155;SDS011;21913;52.456;13.634;2023-03-31T06:42:24;1.23;;;0.70;;
25155;SDS011;21913;52.456;13.634;2023-03-31T06:47:26;2.05;;;0.88;;
25155;SDS011;21913;52.456;13.634;2023-03-31T06:52:27;1.33;;;0.80;;
25155;SDS011;21913;52.456;13.634;2023-03-31T06:57:29;1.58;;;0.85;;
25155;SDS011;21913;52.456;13.634;2023-03-31T07:02:30;1.17;;;0.82;;
25155;SDS011;21913;52.456;13.634;2023-03-31T07:07:32;1.27;;;0.60;;
25155;SDS011;21913;52.456;13.634;2023-03-31T07:12:34;1.52;;;0.80;;
25155;SDS011;21913;52.456;13.634;2023-03-31T07:17:35;1.85;;;0.80;;
25155;SDS011;21913;52.456;13.634;2023-03-31T07:22:37;1.92;;;0.90;;
25155;SDS011;21913;52.456;13.634;2023-03-31T07:27:39;1.65;;;0.80;;
25155;SDS011;21913;52.456;13.634;2023-03-31T07:32:41;1.30;;;0.70;;
25155;SDS011;21913;52.456;13.634;2023-03-31T07:37:43;1.70;;;0.70;;
25155;SDS011;21913;52.456;13.634;2023-03-31T07:42:46;1.00;;;0.73;;
25155;SDS011;21913;52.456;13.634;2023-03-31T07:47:49;0.95;;;0.60;;
25155;SDS011;21913;52.456;13.634;2023-03-31T07:52:51;1.13;;;0.70;;
25155;SDS011;21913;52.456;13.634;2023-03-31T07:57:53;0.93;;;0.60;;
25155;SDS011;21913;52.456;13.634;2023-03-31T08:02:54;1.73;;;0.75;;
25155;SDS011;21913;52.456;13.634;2023-03-31T08:07:55;1.65;;;0.80;;
25155;SDS011;21913;52.456;13.634;2023-03-31T08:12:57;1.65;;;0.60;;
25155;SDS011;21913;52.456;13.634;2023-03-31T08:17:58;1.23;;;0.60;;
25155;SDS011;21913;52.456;13.634;2023-03-31T08:23:00;0.98;;;0.60;;
25155;SDS011;21913;52.456;13.634;2023-03-31T08:28:01;1.85;;;0.80;;
25155;SDS011;21913;52.456;13.634;2023-03-31T08:33:03;1.73;;;0.90;;
25155;SDS011;21913;52.456;13.634;2023-03-31T08:38:05;2.45;;;0.90;;
25155;SDS011;21913;52.456;13.634;2023-03-31T08:43:07;1.40;;;0.60;;
25155;SDS011;21913;52.456;13.634;2023-03-31T08:53:40;1.27;;;0.75;;
25155;SDS011;21913;52.456;13.634;2023-03-31T08:58:50;1.35;;;0.65;;
25155;SDS011;21913;52.456;13.634;2023-03-31T09:09:37;0.80;;;0.50;;
25155;SDS011;21913;52.456;13.634;2023-03-31T09:15:00;1.77;;;0.70;;
25155;SDS011;21913;52.456;13.634;2023-03-31T09:25:11;1.58;;;0.80;;
25155;SDS011;21913;52.456;13.634;2023-03-31T09:35:25;1.88;;;0.77;;
25155;SDS011;21913;52.456;13.634;2023-03-31T09:40:27;1.10;;;0.65;;
25155;SDS011;21913;52.456;13.634;2023-03-31T09:45:29;1.42;;;0.60;;
25155;SDS011;21913;52.456;13.634;2023-03-31T09:50:32;1.80;;;0.60;;
25155;SDS011;21913;52.456;13.634;2023-03-31T09:55:42;1.63;;;0.80;;
25155;SDS011;21913;52.456;13.634;2023-03-31T10:01:03;2.78;;;0.77;;
25155;SDS011;21913;52.456;13.634;2023-03-31T10:11:10;1.58;;;0.60;;
25155;SDS011;21913;52.456;13.634;2023-03-31T10:16:24;0.60;;;0.50;;
25155;SDS011;21913;52.456;13.634;2023-03-31T10:21:34;2.05;;;0.73;;
25155;SDS011;21913;52.456;13.634;2023-03-31T10:26:37;2.17;;;0.70;;
25155;SDS011;21913;52.456;13.634;2023-03-31T10:31:40;1.52;;;0.60;;
25155;SDS011;21913;52.456;13.634;2023-03-31T10:36:45;1.20;;;0.60;;
25155;SDS011;21913;52.456;13.634;2023-03-31T10:41:50;1.00;;;0.60;;
25155;SDS011;21913;52.456;13.634;2023-03-31T10:46:52;1.08;;;0.60;;
25155;SDS011;21913;52.456;13.634;2023-03-31T10:51:55;1.00;;;0.60;;
25155;SDS011;21913;52.456;13.634;2023-03-31T10:56:59;1.55;;;0.68;;
25155;SDS011;21913;52.456;13.634;2023-03-31T11:12:53;1.40;;;0.80;;
25155;SDS011;21913;52.456;13.634;2023-03-31T11:45:40;6.90;;;1.85;;
25155;SDS011;21913;52.456;13.634;2023-03-31T11:50:47;6.55;;;1.98;;
25155;SDS011;21913;52.456;13.634;2023-03-31T11:55:50;6.35;;;2.00;;
25155;SDS011;21913;52.456;13.634;2023-03-31T12:06:05;7.38;;;2.08;;
25155;SDS011;21913;52.456;13.634;2023-03-31T12:16:37;10.85;;;2.47;;
25155;SDS011;21913;52.456;13.634;2023-03-31T12:21:46;11.43;;;2.60;;
25155;SDS011;21913;52.456;13.634;2023-03-31T12:32:00;13.88;;;3.10;;
25155;SDS011;21913;52.456;13.634;2023-03-31T12:47:52;11.07;;;2.53;;
25155;SDS011;21913;52.456;13.634;2023-03-31T12:52:59;10.00;;;2.55;;
25155;SDS011;21913;52.456;13.634;2023-03-31T13:13:59;8.40;;;2.63;;
25155;SDS011;21913;52.456;13.634;2023-03-31T13:19:02;11.50;;;2.92;;
25155;SDS011;21913;52.456;13.634;2023-03-31T13:24:05;9.90;;;2.78;;
25155;SDS011;21913;52.456;13.634;2023-03-31T13:29:18;8.57;;;2.30;;
25155;SDS011;21913;52.456;13.634;2023-03-31T13:34:42;9.70;;;2.33;;
25155;SDS011;21913;52.456;13.634;2023-03-31T13:56:03;11.38;;;2.33;;
25155;SDS011;21913;52.456;13.634;2023-03-31T14:06:58;6.50;;;1.85;;
25155;SDS011;21913;52.456;13.634;2023-03-31T14:17:21;6.72;;;2.00;;
25155;SDS011;21913;52.456;13.634;2023-03-31T14:22:41;6.43;;;1.73;;
25155;SDS011;21913;52.456;13.634;2023-03-31T14:38:20;4.63;;;1.80;;
25155;SDS011;21913;52.456;13.634;2023-03-31T14:43:27;5.03;;;1.70;;
25155;SDS011;21913;52.456;13.634;2023-03-31T14:48:32;4.80;;;1.60;;
25155;SDS011;21913;52.456;13.634;2023-03-31T14:53:35;4.72;;;1.58;;
25155;SDS011;21913;52.456;13.634;2023-03-31T14:58:38;4.35;;;1.75;;
25155;SDS011;21913;52.456;13.634;2023-03-31T15:03:43;6.53;;;1.70;;
25155;SDS011;21913;52.456;13.634;2023-03-31T15:08:46;5.28;;;1.88;;
25155;SDS011;21913;52.456;13.634;2023-03-31T15:13:48;4.93;;;1.65;;
25155;SDS011;21913;52.456;13.634;2023-03-31T15:19:07;4.13;;;1.45;;
25155;SDS011;21913;52.456;13.634;2023-03-31T15:24:19;4.03;;;1.70;;
25155;SDS011;21913;52.456;13.634;2023-03-31T15:29:21;3.22;;;1.35;;
25155;SDS011;21913;52.456;13.634;2023-03-31T15:34:30;4.47;;;1.33;;
25155;SDS011;21913;52.456;13.634;2023-03-31T15:39:34;4.88;;;1.88;;
25155;SDS011;21913;52.456;13.634;2023-03-31T15:44:47;4.47;;;1.70;;
25155;SDS011;21913;52.456;13.634;2023-03-31T15:50:16;4.00;;;1.33;;
25155;SDS011;21913;52.456;13.634;2023-03-31T16:05:52;5.45;;;1.50;;
25155;SDS011;21913;52.456;13.634;2023-03-31T16:11:00;3.53;;;1.38;;
25155;SDS011;21913;52.456;13.634;2023-03-31T16:16:06;4.13;;;1.52;;
25155;SDS011;21913;52.456;13.634;2023-03-31T16:21:10;3.13;;;1.30;;
25155;SDS011;21913;52.456;13.634;2023-03-31T16:26:12;3.85;;;1.40;;
25155;SDS011;21913;52.456;13.634;2023-03-31T16:36:35;4.40;;;1.35;;
25155;SDS011;21913;52.456;13.634;2023-03-31T16:41:37;3.55;;;1.33;;
25155;SDS011;21913;52.456;13.634;2023-03-31T16:46:39;3.85;;;1.50;;
25155;SDS011;21913;52.456;13.634;2023-03-31T16:51:41;3.83;;;1.50;;
25155;SDS011;21913;52.456;13.634;2023-03-31T16:56:43;2.97;;;1.25;;
25155;SDS011;21913;52.456;13.634;2023-03-31T17:01:44;2.47;;;1.10;;
25155;SDS011;21913;52.456;13.634;2023-03-31T17:06:46;2.83;;;1.23;;
25155;SDS011;21913;52.456;13.634;2023-03-31T17:11:47;4.07;;;1.40;;
25155;SDS011;21913;52.456;13.634;2023-03-31T17:16:49;3.00;;;1.20;;
25155;SDS011;21913;52.456;13.634;2023-03-31T17:21:50;3.22;;;1.00;;
25155;SDS011;21913;52.456;13.634;2023-03-31T17:26:52;4.82;;;1.27;;
25155;SDS011;21913;52.456;13.634;2023-03-31T17:31:53;2.45;;;1.20;;
25155;SDS011;21913;52.456;13.634;2023-03-31T17:36:55;2.50;;;1.10;;
25155;SDS011;21913;52.456;13.634;2023-03-31T17:41:56;2.15;;;1.10;;
25155;SDS011;21913;52.456;13.634;2023-03-31T17:46:58;4.35;;;1.38;;
25155;SDS011;21913;52.456;13.634;2023-03-31T17:51:59;2.50;;;1.20;;
25155;SDS011;21913;52.456;13.634;2023-03-31T17:57:01;2.35;;;1.00;;
25155;SDS011;21913;52.456;13.634;2023-03-31T18:02:03;2.55;;;1.17;;
25155;SDS011;21913;52.456;13.634;2023-03-31T18:07:04;2.58;;;1.05;;
25155;SDS011;21913;52.456;13.634;2023-03-31T18:12:06;3.10;;;1.20;;
25155;SDS011;21913;52.456;13.634;2023-03-31T18:17:07;2.63;;;1.25;;
25155;SDS011;21913;52.456;13.634;2023-03-31T18:22:09;2.53;;;1.10;;
25155;SDS011;21913;52.456;13.634;2023-03-31T18:27:11;2.53;;;1.23;;
25155;SDS011;21913;52.456;13.634;2023-03-31T18:32:12;2.58;;;1.10;;
25155;SDS011;21913;52.456;13.634;2023-03-31T18:37:14;2.28;;;1.02;;
25155;SDS011;21913;52.456;13.634;2023-03-31T18:42:15;2.03;;;0.90;;
25155;SDS011;21913;52.456;13.634;2023-03-31T18:47:17;1.92;;;1.00;;
25155;SDS011;21913;52.456;13.634;2023-03-31T18:52:19;2.92;;;1.00;;
25155;SDS011;21913;52.456;13.634;2023-03-31T18:57:20;1.95;;;0.85;;
25155;SDS011;21913;52.456;13.634;2023-03-31T19:02:22;3.55;;;1.00;;
25155;SDS011;21913;52.456;13.634;2023-03-31T19:07:24;1.33;;;0.70;;
25155;SDS011;21913;52.456;13.634;2023-03-31T19:12:25;2.10;;;0.80;;
25155;SDS011;21913;52.456;13.634;2023-03-31T19:17:27;2.88;;;1.00;;
25155;SDS011;21913;52.456;13.634;2023-03-31T19:22:28;2.20;;;1.00;;
25155;SDS011;21913;52.456;13.634;2023-03-31T19:27:30;1.98;;;0.90;;
25155;SDS011;21913;52.456;13.634;2023-03-31T19:32:31;1.65;;;0.70;;
25155;SDS011;21913;52.456;13.634;2023-03-31T19:37:33;2.05;;;1.02;;
25155;SDS011;21913;52.456;13.634;2023-03-31T19:42:35;2.17;;;0.95;;
25155;SDS011;21913;52.456;13.634;2023-03-31T19:47:36;2.75;;;1.00;;
25155;SDS011;21913;52.456;13.634;2023-03-31T19:52:38;1.70;;;0.88;;
25155;SDS011;21913;52.456;13.634;2023-03-31T19:57:39;1.92;;;0.82;;
25155;SDS011;21913;52.456;13.634;2023-03-31T20:02:41;2.55;;;1.00;;
25155;SDS011;21913;52.456;13.634;2023-03-31T20:07:42;1.70;;;0.98;;
25155;SDS011;21913;52.456;13.634;2023-03-31T20:12:44;3.53;;;0.93;;
25155;SDS011;21913;52.456;13.634;2023-03-31T20:17:45;1.40;;;0.90;;
25155;SDS011;21913;52.456;13.634;2023-03-31T20:22:47;1.75;;;0.85;;
25155;SDS011;21913;52.456;13.634;2023-03-31T20:27:48;1.90;;;0.90;;
25155;SDS011;21913;52.456;13.634;2023-03-31T20:32:50;1.20;;;0.60;;
25155;SDS011;21913;52.456;13.634;2023-03-31T20:37:51;2.20;;;1.10;;
25155;SDS011;21913;52.456;13.634;2023-03-31T20:42:53;1.30;;;0.80;;
25155;SDS011;21913;52.456;13.634;2023-03-31T20:47:54;3.22;;;1.00;;
25155;SDS011;21913;52.456;13.634;2023-03-31T20:52:56;1.85;;;0.80;;
25155;SDS011;21913;52.456;13.634;2023-03-31T20:57:57;1.45;;;0.68;;
25155;SDS011;21913;52.456;13.634;2023-03-31T21:02:59;2.33;;;0.98;;
25155;SDS011;21913;52.456;13.634;2023-03-31T21:08:00;1.70;;;0.70;;
25155;SDS011;21913;52.456;13.634;2023-03-31T21:13:02;2.05;;;0.90;;
25155;SDS011;21913;52.456;13.634;2023-03-31T21:18:04;1.00;;;0.60;;
25155;SDS011;21913;52.456;13.634;2023-03-31T21:23:07;2.33;;;0.77;;
25155;SDS011;21913;52.456;13.634;2023-03-31T21:28:08;1.40;;;0.70;;
25155;SDS011;21913;52.456;13.634;2023-03-31T21:33:10;2.28;;;0.80;;
25155;SDS011;21913;52.456;13.634;2023-03-31T21:38:11;1.98;;;0.90;;
25155;SDS011;21913;52.456;13.634;2023-03-31T21:43:13;2.03;;;0.80;;
25155;SDS011;21913;52.456;13.634;2023-03-31T21:48:15;1.58;;;0.77;;
25155;SDS011;21913;52.456;13.634;2023-03-31T21:53:16;1.50;;;0.80;;
25155;SDS011;21913;52.456;13.634;2023-03-31T21:58:18;1.50;;;0.80;;
25155;SDS011;21913;52.456;13.634;2023-03-31T22:03:19;1.30;;;0.70;;
25155;SDS011;21913;52.456;13.634;2023-03-31T22:08:26;1.67;;;0.70;;
25155;SDS011;21913;52.456;13.634;2023-03-31T22:13:29;1.00;;;0.60;;
25155;SDS011;21913;52.456;13.634;2023-03-31T22:18:30;2.05;;;0.68;;
25155;SDS011;21913;52.456;13.634;2023-03-31T22:23:32;1.33;;;0.70;;
25155;SDS011;21913;52.456;13.634;2023-03-31T22:28:33;1.58;;;0.80;;
25155;SDS011;21913;52.456;13.634;2023-03-31T22:33:35;1.75;;;0.80;;
25155;SDS011;21913;52.456;13.634;2023-03-31T22:38:36;0.80;;;0.60;;
25155;SDS011;21913;52.456;13.634;2023-03-31T22:43:38;1.58;;;0.70;;
25155;SDS011;21913;52.456;13.634;2023-03-31T22:48:39;2.03;;;0.90;;
25155;SDS011;21913;52.456;13.634;2023-03-31T22:53:41;1.45;;;0.70;;
25155;SDS011;21913;52.456;13.634;2023-03-31T22:58:43;1.33;;;0.60;;
25155;SDS011;21913;52.456;13.634;2023-03-31T23:03:45;1.30;;;0.80;;
25155;SDS011;21913;52.456;13.634;2023-03-31T23:08:47;1.60;;;0.70;;
25155;SDS011;21913;52.456;13.634;2023-03-31T23:13:48;1.15;;;0.57;;
25155;SDS011;21913;52.456;13.634;2023-03-31T23:18:50;1.30;;;0.60;;
25155;SDS011;21913;52.456;13.634;2023-03-31T23:23:54;1.05;;;0.70;;
25155;SDS011;21913;52.456;13.634;2023-03-31T23:28:57;1.67;;;0.70;;
25155;SDS011;21913;52.456;13.634;2023-03-31T23:33:59;1.15;;;0.60;;
25155;SDS011;21913;52.456;13.634;2023-03-31T23:39:01;1.45;;;0.68;;
25155;SDS011;21913;52.456;13.634;2023-03-31T23:44:03;1.20;;;0.70;;
25155;SDS011;21913;52.456;13.634;2023-03-31T23:49:04;1.10;;;0.60;;
25155;SDS011;21913;52.456;13.634;2023-03-31T23:54:06;1.33;;;0.70;;
25155;SDS011;21913;52.456;13.634;2023-03-31T23:59:07;0.55;;;0.40;;
